Franca, Brazil
Current Conditions -  °F | °C
As of 4:00 PM on Friday 28 Nov 2014 (Local Time) from SBRP Reporting Station
Thunderstorm Thunderstorm  
Wind Chill: 81°   Ceiling: 10000
Heat Index: 83°   Visibility: 6mi
Dew Point: 68°   Wind: 8mph
Humidity: 65%   Direction: 10°N
Pressure: 29.91"   Gusts: NA
Location:  20.53°S, 47.39°W
Report Text: SBRP 281800Z 01007KT 9999 TS VCSH FEW040 FEW045CB BKN100 27/20 Q1013
Loading
Personal Weather Stations






























Interactive Weather Map New forecast layout! Learn more

10-Day Weather Forecast

Advertisements
Track Severe Weather on mobile